sensor_id;sensor_type;location;lat;lon;timestamp;temperature;humidity
11540;DHT22;5826;54.756;9.192;2023-09-07T00:01:07;20.40;92.90
11540;DHT22;5826;54.756;9.192;2023-09-07T00:03:33;20.40;93.10
11540;DHT22;5826;54.756;9.192;2023-09-07T00:05:58;20.40;92.90
11540;DHT22;5826;54.756;9.192;2023-09-07T00:08:24;20.40;93.30
11540;DHT22;5826;54.756;9.192;2023-09-07T00:10:51;20.40;93.50
11540;DHT22;5826;54.756;9.192;2023-09-07T00:13:16;20.40;93.40
11540;DHT22;5826;54.756;9.192;2023-09-07T00:15:42;20.40;93.60
11540;DHT22;5826;54.756;9.192;2023-09-07T00:18:07;20.40;93.60
11540;DHT22;5826;54.756;9.192;2023-09-07T00:20:33;20.40;93.70
11540;DHT22;5826;54.756;9.192;2023-09-07T00:23:02;20.40;93.90
11540;DHT22;5826;54.756;9.192;2023-09-07T00:25:28;20.40;93.80
11540;DHT22;5826;54.756;9.192;2023-09-07T00:27:54;20.30;93.80
11540;DHT22;5826;54.756;9.192;2023-09-07T00:30:19;20.30;93.80
11540;DHT22;5826;54.756;9.192;2023-09-07T00:32:45;20.30;94.40
11540;DHT22;5826;54.756;9.192;2023-09-07T00:35:10;20.30;94.00
11540;DHT22;5826;54.756;9.192;2023-09-07T00:37:37;20.30;94.30
11540;DHT22;5826;54.756;9.192;2023-09-07T00:40:02;20.30;94.20
11540;DHT22;5826;54.756;9.192;2023-09-07T00:42:29;20.20;94.40
11540;DHT22;5826;54.756;9.192;2023-09-07T00:44:54;20.20;94.50
11540;DHT22;5826;54.756;9.192;2023-09-07T00:47:20;20.20;94.50
11540;DHT22;5826;54.756;9.192;2023-09-07T00:49:46;20.20;94.80
11540;DHT22;5826;54.756;9.192;2023-09-07T00:52:11;20.20;94.90
11540;DHT22;5826;54.756;9.192;2023-09-07T00:54:37;20.20;94.60
11540;DHT22;5826;54.756;9.192;2023-09-07T00:57:07;20.20;94.80
11540;DHT22;5826;54.756;9.192;2023-09-07T00:59:33;20.20;95.10
11540;DHT22;5826;54.756;9.192;2023-09-07T01:01:59;20.10;94.90
11540;DHT22;5826;54.756;9.192;2023-09-07T01:04:24;20.10;95.00
11540;DHT22;5826;54.756;9.192;2023-09-07T01:06:55;20.10;94.90
11540;DHT22;5826;54.756;9.192;2023-09-07T01:09:24;20.10;95.00
11540;DHT22;5826;54.756;9.192;2023-09-07T01:11:50;20.10;94.80
11540;DHT22;5826;54.756;9.192;2023-09-07T01:14:16;20.00;95.10
11540;DHT22;5826;54.756;9.192;2023-09-07T01:16:42;20.00;95.40
11540;DHT22;5826;54.756;9.192;2023-09-07T01:19:08;20.00;95.50
11540;DHT22;5826;54.756;9.192;2023-09-07T01:21:38;20.00;95.60
11540;DHT22;5826;54.756;9.192;2023-09-07T01:24:06;20.00;95.80
11540;DHT22;5826;54.756;9.192;2023-09-07T01:26:33;20.00;95.50
11540;DHT22;5826;54.756;9.192;2023-09-07T01:28:59;19.90;95.80
11540;DHT22;5826;54.756;9.192;2023-09-07T01:31:24;19.90;95.90
11540;DHT22;5826;54.756;9.192;2023-09-07T01:33:50;19.90;96.00
11540;DHT22;5826;54.756;9.192;2023-09-07T01:36:15;19.90;96.20
11540;DHT22;5826;54.756;9.192;2023-09-07T01:38:41;19.90;96.40
11540;DHT22;5826;54.756;9.192;2023-09-07T01:41:06;19.90;96.40
11540;DHT22;5826;54.756;9.192;2023-09-07T01:43:31;19.90;96.30
11540;DHT22;5826;54.756;9.192;2023-09-07T01:45:57;19.80;96.50
11540;DHT22;5826;54.756;9.192;2023-09-07T01:48:22;19.80;96.70
11540;DHT22;5826;54.756;9.192;2023-09-07T01:50:55;19.80;96.50
11540;DHT22;5826;54.756;9.192;2023-09-07T01:53:20;19.80;96.20
11540;DHT22;5826;54.756;9.192;2023-09-07T01:55:46;19.80;96.90
11540;DHT22;5826;54.756;9.192;2023-09-07T01:58:13;19.80;97.10
11540;DHT22;5826;54.756;9.192;2023-09-07T02:00:39;19.70;96.90
11540;DHT22;5826;54.756;9.192;2023-09-07T02:03:05;19.70;96.90
11540;DHT22;5826;54.756;9.192;2023-09-07T02:05:30;19.70;96.90
11540;DHT22;5826;54.756;9.192;2023-09-07T02:07:57;19.70;97.10
11540;DHT22;5826;54.756;9.192;2023-09-07T02:10:23;19.60;97.10
11540;DHT22;5826;54.756;9.192;2023-09-07T02:12:49;19.60;97.20
11540;DHT22;5826;54.756;9.192;2023-09-07T02:15:14;19.60;97.30
11540;DHT22;5826;54.756;9.192;2023-09-07T02:17:40;19.60;97.50
11540;DHT22;5826;54.756;9.192;2023-09-07T02:20:06;19.50;97.40
11540;DHT22;5826;54.756;9.192;2023-09-07T02:22:35;19.50;97.50
11540;DHT22;5826;54.756;9.192;2023-09-07T02:25:01;19.50;97.30
11540;DHT22;5826;54.756;9.192;2023-09-07T02:27:28;19.50;97.70
11540;DHT22;5826;54.756;9.192;2023-09-07T02:29:53;19.50;97.90
11540;DHT22;5826;54.756;9.192;2023-09-07T02:32:19;19.40;97.90
11540;DHT22;5826;54.756;9.192;2023-09-07T02:34:44;19.40;97.60
11540;DHT22;5826;54.756;9.192;2023-09-07T02:37:10;19.40;98.10
11540;DHT22;5826;54.756;9.192;2023-09-07T02:39:35;19.30;98.10
11540;DHT22;5826;54.756;9.192;2023-09-07T02:42:01;19.40;98.30
11540;DHT22;5826;54.756;9.192;2023-09-07T02:44:26;19.30;98.10
11540;DHT22;5826;54.756;9.192;2023-09-07T02:46:51;19.40;98.40
11540;DHT22;5826;54.756;9.192;2023-09-07T02:49:17;19.30;98.50
11540;DHT22;5826;54.756;9.192;2023-09-07T02:51:42;19.30;98.40
11540;DHT22;5826;54.756;9.192;2023-09-07T02:54:08;19.30;98.70
11540;DHT22;5826;54.756;9.192;2023-09-07T02:56:34;19.30;98.20
11540;DHT22;5826;54.756;9.192;2023-09-07T02:58:59;19.30;98.40
11540;DHT22;5826;54.756;9.192;2023-09-07T03:01:26;19.30;98.50
11540;DHT22;5826;54.756;9.192;2023-09-07T03:03:51;19.30;98.60
11540;DHT22;5826;54.756;9.192;2023-09-07T03:06:17;19.30;98.60
11540;DHT22;5826;54.756;9.192;2023-09-07T03:08:45;19.30;98.80
11540;DHT22;5826;54.756;9.192;2023-09-07T03:11:11;19.30;98.70
11540;DHT22;5826;54.756;9.192;2023-09-07T03:13:37;19.30;98.80
11540;DHT22;5826;54.756;9.192;2023-09-07T03:16:03;19.20;99.00
11540;DHT22;5826;54.756;9.192;2023-09-07T03:18:30;19.30;99.30
11540;DHT22;5826;54.756;9.192;2023-09-07T03:20:58;19.30;99.00
11540;DHT22;5826;54.756;9.192;2023-09-07T03:23:24;19.30;99.10
11540;DHT22;5826;54.756;9.192;2023-09-07T03:25:49;19.30;99.30
11540;DHT22;5826;54.756;9.192;2023-09-07T03:28:15;19.20;99.20
11540;DHT22;5826;54.756;9.192;2023-09-07T03:30:40;19.30;99.40
11540;DHT22;5826;54.756;9.192;2023-09-07T03:33:06;19.20;99.30
11540;DHT22;5826;54.756;9.192;2023-09-07T03:35:32;19.20;99.50
11540;DHT22;5826;54.756;9.192;2023-09-07T03:37:57;19.20;99.60
11540;DHT22;5826;54.756;9.192;2023-09-07T03:40:23;19.20;99.90
11540;DHT22;5826;54.756;9.192;2023-09-07T03:42:49;19.20;99.80
11540;DHT22;5826;54.756;9.192;2023-09-07T03:45:15;19.20;99.70
11540;DHT22;5826;54.756;9.192;2023-09-07T03:47:41;19.20;99.90
11540;DHT22;5826;54.756;9.192;2023-09-07T03:50:08;19.20;99.90
11540;DHT22;5826;54.756;9.192;2023-09-07T03:52:33;19.20;99.90
11540;DHT22;5826;54.756;9.192;2023-09-07T03:55:00;19.20;99.90
11540;DHT22;5826;54.756;9.192;2023-09-07T03:57:26;19.20;99.90
11540;DHT22;5826;54.756;9.192;2023-09-07T03:59:52;19.20;99.90
11540;DHT22;5826;54.756;9.192;2023-09-07T04:02:18;19.10;99.90
11540;DHT22;5826;54.756;9.192;2023-09-07T04:04:47;19.10;99.90
11540;DHT22;5826;54.756;9.192;2023-09-07T04:07:13;19.10;99.90
11540;DHT22;5826;54.756;9.192;2023-09-07T04:09:38;19.10;99.90
11540;DHT22;5826;54.756;9.192;2023-09-07T04:12:04;19.10;99.90
11540;DHT22;5826;54.756;9.192;2023-09-07T04:14:30;19.00;99.90
11540;DHT22;5826;54.756;9.192;2023-09-07T04:16:55;19.00;99.90
11540;DHT22;5826;54.756;9.192;2023-09-07T04:19:21;19.00;99.90
11540;DHT22;5826;54.756;9.192;2023-09-07T04:21:46;19.00;99.90
11540;DHT22;5826;54.756;9.192;2023-09-07T04:24:12;19.00;99.90
11540;DHT22;5826;54.756;9.192;2023-09-07T04:26:37;19.00;99.90
11540;DHT22;5826;54.756;9.192;2023-09-07T04:29:03;19.00;99.90
11540;DHT22;5826;54.756;9.192;2023-09-07T04:31:29;19.00;99.90
11540;DHT22;5826;54.756;9.192;2023-09-07T04:33:54;19.00;99.90
11540;DHT22;5826;54.756;9.192;2023-09-07T04:36:20;19.00;99.90
11540;DHT22;5826;54.756;9.192;2023-09-07T04:38:45;19.00;99.90
11540;DHT22;5826;54.756;9.192;2023-09-07T04:41:12;19.00;99.90
11540;DHT22;5826;54.756;9.192;2023-09-07T04:43:39;19.00;99.90
11540;DHT22;5826;54.756;9.192;2023-09-07T04:46:14;19.00;99.90
11540;DHT22;5826;54.756;9.192;2023-09-07T04:48:40;19.00;99.90
11540;DHT22;5826;54.756;9.192;2023-09-07T04:51:10;19.00;99.90
11540;DHT22;5826;54.756;9.192;2023-09-07T04:53:38;19.00;99.90
11540;DHT22;5826;54.756;9.192;2023-09-07T04:56:05;19.00;99.90
11540;DHT22;5826;54.756;9.192;2023-09-07T04:58:31;19.00;99.90
11540;DHT22;5826;54.756;9.192;2023-09-07T05:01:08;19.00;99.90
11540;DHT22;5826;54.756;9.192;2023-09-07T05:03:35;19.00;99.90
11540;DHT22;5826;54.756;9.192;2023-09-07T05:06:01;19.00;99.90
11540;DHT22;5826;54.756;9.192;2023-09-07T05:08:28;19.10;99.90
11540;DHT22;5826;54.756;9.192;2023-09-07T05:11:02;19.10;99.90
11540;DHT22;5826;54.756;9.192;2023-09-07T05:13:28;19.10;99.90
11540;DHT22;5826;54.756;9.192;2023-09-07T05:15:55;19.10;99.90
11540;DHT22;5826;54.756;9.192;2023-09-07T05:18:21;19.10;99.90
11540;DHT22;5826;54.756;9.192;2023-09-07T05:20:47;19.10;99.90
11540;DHT22;5826;54.756;9.192;2023-09-07T05:23:20;19.10;99.90
11540;DHT22;5826;54.756;9.192;2023-09-07T05:25:48;19.20;99.90
11540;DHT22;5826;54.756;9.192;2023-09-07T05:28:14;19.10;99.90
11540;DHT22;5826;54.756;9.192;2023-09-07T05:30:43;19.20;99.90
11540;DHT22;5826;54.756;9.192;2023-09-07T05:33:10;19.20;99.90
11540;DHT22;5826;54.756;9.192;2023-09-07T05:35:36;19.20;99.90
11540;DHT22;5826;54.756;9.192;2023-09-07T05:38:03;19.20;99.90
11540;DHT22;5826;54.756;9.192;2023-09-07T05:40:29;19.30;99.90
11540;DHT22;5826;54.756;9.192;2023-09-07T05:42:55;19.30;99.90
11540;DHT22;5826;54.756;9.192;2023-09-07T05:45:20;19.30;99.90
11540;DHT22;5826;54.756;9.192;2023-09-07T05:47:46;19.30;99.90
11540;DHT22;5826;54.756;9.192;2023-09-07T05:50:11;19.30;99.90
11540;DHT22;5826;54.756;9.192;2023-09-07T05:52:37;19.30;99.90
11540;DHT22;5826;54.756;9.192;2023-09-07T05:55:03;19.40;99.90
11540;DHT22;5826;54.756;9.192;2023-09-07T05:57:28;19.40;99.90
11540;DHT22;5826;54.756;9.192;2023-09-07T05:59:54;19.40;99.90
11540;DHT22;5826;54.756;9.192;2023-09-07T06:02:19;19.50;99.90
11540;DHT22;5826;54.756;9.192;2023-09-07T06:04:45;19.40;99.90
11540;DHT22;5826;54.756;9.192;2023-09-07T06:07:11;19.50;99.90
11540;DHT22;5826;54.756;9.192;2023-09-07T06:09:36;19.50;99.90
11540;DHT22;5826;54.756;9.192;2023-09-07T06:12:02;19.50;99.90
11540;DHT22;5826;54.756;9.192;2023-09-07T06:14:28;19.60;99.90
11540;DHT22;5826;54.756;9.192;2023-09-07T06:16:54;19.60;99.90
11540;DHT22;5826;54.756;9.192;2023-09-07T06:19:19;19.70;99.90
11540;DHT22;5826;54.756;9.192;2023-09-07T06:21:45;19.70;99.90
11540;DHT22;5826;54.756;9.192;2023-09-07T06:24:10;19.70;99.90
11540;DHT22;5826;54.756;9.192;2023-09-07T06:26:36;19.80;99.90
11540;DHT22;5826;54.756;9.192;2023-09-07T06:29:01;19.90;99.90
11540;DHT22;5826;54.756;9.192;2023-09-07T06:31:27;19.90;99.90
11540;DHT22;5826;54.756;9.192;2023-09-07T06:33:52;20.00;99.90
11540;DHT22;5826;54.756;9.192;2023-09-07T06:36:18;20.00;99.90
11540;DHT22;5826;54.756;9.192;2023-09-07T06:38:43;20.00;99.90
11540;DHT22;5826;54.756;9.192;2023-09-07T06:41:09;20.10;99.90
11540;DHT22;5826;54.756;9.192;2023-09-07T06:43:34;20.10;99.90
11540;DHT22;5826;54.756;9.192;2023-09-07T06:46:06;20.10;99.90
11540;DHT22;5826;54.756;9.192;2023-09-07T06:48:33;20.20;99.90
11540;DHT22;5826;54.756;9.192;2023-09-07T06:51:04;20.20;99.90
11540;DHT22;5826;54.756;9.192;2023-09-07T06:53:30;20.20;99.90
11540;DHT22;5826;54.756;9.192;2023-09-07T06:55:59;20.30;99.90
11540;DHT22;5826;54.756;9.192;2023-09-07T06:58:25;20.40;99.90
11540;DHT22;5826;54.756;9.192;2023-09-07T07:00:51;20.40;99.90
11540;DHT22;5826;54.756;9.192;2023-09-07T07:03:16;20.40;99.90
11540;DHT22;5826;54.756;9.192;2023-09-07T07:05:42;20.40;99.90
11540;DHT22;5826;54.756;9.192;2023-09-07T07:08:08;20.50;99.90
11540;DHT22;5826;54.756;9.192;2023-09-07T07:10:34;20.50;99.90
11540;DHT22;5826;54.756;9.192;2023-09-07T07:12:59;20.50;99.90
11540;DHT22;5826;54.756;9.192;2023-09-07T07:15:25;20.40;99.90
11540;DHT22;5826;54.756;9.192;2023-09-07T07:17:51;20.60;99.90
11540;DHT22;5826;54.756;9.192;2023-09-07T07:20:16;20.70;99.90
11540;DHT22;5826;54.756;9.192;2023-09-07T07:22:42;20.70;99.90
11540;DHT22;5826;54.756;9.192;2023-09-07T07:25:07;20.80;99.90
11540;DHT22;5826;54.756;9.192;2023-09-07T07:27:33;20.90;99.90
11540;DHT22;5826;54.756;9.192;2023-09-07T07:29:59;20.90;99.90
11540;DHT22;5826;54.756;9.192;2023-09-07T07:32:24;20.90;99.90
11540;DHT22;5826;54.756;9.192;2023-09-07T07:34:50;21.00;99.90
11540;DHT22;5826;54.756;9.192;2023-09-07T07:37:15;21.10;99.90
11540;DHT22;5826;54.756;9.192;2023-09-07T07:39:41;21.10;99.90
11540;DHT22;5826;54.756;9.192;2023-09-07T07:42:09;21.20;99.90
11540;DHT22;5826;54.756;9.192;2023-09-07T07:44:35;21.20;99.90
11540;DHT22;5826;54.756;9.192;2023-09-07T07:47:01;21.30;99.90
11540;DHT22;5826;54.756;9.192;2023-09-07T07:49:26;21.30;99.90
11540;DHT22;5826;54.756;9.192;2023-09-07T07:51:53;21.40;99.90
11540;DHT22;5826;54.756;9.192;2023-09-07T07:54:20;21.50;99.90
11540;DHT22;5826;54.756;9.192;2023-09-07T07:56:48;21.60;99.90
11540;DHT22;5826;54.756;9.192;2023-09-07T07:59:13;21.60;99.90
11540;DHT22;5826;54.756;9.192;2023-09-07T08:01:39;21.70;99.90
11540;DHT22;5826;54.756;9.192;2023-09-07T08:04:05;21.70;99.90
11540;DHT22;5826;54.756;9.192;2023-09-07T08:06:31;21.80;99.90
11540;DHT22;5826;54.756;9.192;2023-09-07T08:08:56;21.90;99.90
11540;DHT22;5826;54.756;9.192;2023-09-07T08:11:22;21.90;99.90
11540;DHT22;5826;54.756;9.192;2023-09-07T08:13:47;22.00;99.90
11540;DHT22;5826;54.756;9.192;2023-09-07T08:16:13;22.10;99.90
11540;DHT22;5826;54.756;9.192;2023-09-07T08:18:38;22.10;99.90
11540;DHT22;5826;54.756;9.192;2023-09-07T08:21:05;22.20;99.90
11540;DHT22;5826;54.756;9.192;2023-09-07T08:23:30;22.30;99.90
11540;DHT22;5826;54.756;9.192;2023-09-07T08:25:56;22.30;99.90
11540;DHT22;5826;54.756;9.192;2023-09-07T08:28:22;22.40;99.90
11540;DHT22;5826;54.756;9.192;2023-09-07T08:30:51;22.50;99.90
11540;DHT22;5826;54.756;9.192;2023-09-07T08:33:21;22.60;99.60
11540;DHT22;5826;54.756;9.192;2023-09-07T08:35:52;22.60;99.90
11540;DHT22;5826;54.756;9.192;2023-09-07T08:38:18;22.80;99.90
11540;DHT22;5826;54.756;9.192;2023-09-07T08:40:44;23.10;99.90
11540;DHT22;5826;54.756;9.192;2023-09-07T08:43:12;23.00;99.90
11540;DHT22;5826;54.756;9.192;2023-09-07T08:45:43;23.10;99.90
11540;DHT22;5826;54.756;9.192;2023-09-07T08:48:13;23.20;99.60
11540;DHT22;5826;54.756;9.192;2023-09-07T08:50:39;23.20;99.90
11540;DHT22;5826;54.756;9.192;2023-09-07T08:53:06;23.30;99.70
11540;DHT22;5826;54.756;9.192;2023-09-07T08:55:33;23.40;99.90
11540;DHT22;5826;54.756;9.192;2023-09-07T08:57:58;23.50;99.80
11540;DHT22;5826;54.756;9.192;2023-09-07T09:00:24;23.80;99.60
11540;DHT22;5826;54.756;9.192;2023-09-07T09:02:49;23.70;99.40
11540;DHT22;5826;54.756;9.192;2023-09-07T09:05:15;23.70;99.50
11540;DHT22;5826;54.756;9.192;2023-09-07T09:07:43;23.80;99.60
11540;DHT22;5826;54.756;9.192;2023-09-07T09:10:09;23.90;99.30
11540;DHT22;5826;54.756;9.192;2023-09-07T09:12:35;24.00;99.60
11540;DHT22;5826;54.756;9.192;2023-09-07T09:15:01;24.10;99.30
11540;DHT22;5826;54.756;9.192;2023-09-07T09:17:28;24.20;99.40
11540;DHT22;5826;54.756;9.192;2023-09-07T09:19:54;24.40;99.60
11540;DHT22;5826;54.756;9.192;2023-09-07T09:22:19;24.40;99.40
11540;DHT22;5826;54.756;9.192;2023-09-07T09:24:47;24.50;99.40
11540;DHT22;5826;54.756;9.192;2023-09-07T09:27:13;24.60;99.10
11540;DHT22;5826;54.756;9.192;2023-09-07T09:29:39;24.70;99.00
11540;DHT22;5826;54.756;9.192;2023-09-07T09:32:07;24.80;98.90
11540;DHT22;5826;54.756;9.192;2023-09-07T09:34:36;24.90;98.80
11540;DHT22;5826;54.756;9.192;2023-09-07T09:37:03;25.10;98.90
11540;DHT22;5826;54.756;9.192;2023-09-07T09:39:29;25.10;98.80
11540;DHT22;5826;54.756;9.192;2023-09-07T09:41:55;25.10;98.80
11540;DHT22;5826;54.756;9.192;2023-09-07T09:44:22;25.20;98.80
11540;DHT22;5826;54.756;9.192;2023-09-07T09:46:53;25.30;98.80
11540;DHT22;5826;54.756;9.192;2023-09-07T09:49:20;25.40;98.80
11540;DHT22;5826;54.756;9.192;2023-09-07T09:51:51;25.50;98.60
11540;DHT22;5826;54.756;9.192;2023-09-07T09:54:17;25.50;98.40
11540;DHT22;5826;54.756;9.192;2023-09-07T09:56:43;25.60;98.30
11540;DHT22;5826;54.756;9.192;2023-09-07T09:59:10;25.70;98.50
11540;DHT22;5826;54.756;9.192;2023-09-07T10:01:43;26.20;98.80
11540;DHT22;5826;54.756;9.192;2023-09-07T10:04:11;25.80;98.60
11540;DHT22;5826;54.756;9.192;2023-09-07T10:06:37;26.00;98.40
11540;DHT22;5826;54.756;9.192;2023-09-07T10:09:05;25.90;98.20
11540;DHT22;5826;54.756;9.192;2023-09-07T10:11:39;25.90;98.20
11540;DHT22;5826;54.756;9.192;2023-09-07T10:14:06;26.00;98.10
11540;DHT22;5826;54.756;9.192;2023-09-07T10:17:01;26.00;98.20
11540;DHT22;5826;54.756;9.192;2023-09-07T10:19:29;26.10;98.80
11540;DHT22;5826;54.756;9.192;2023-09-07T10:21:55;26.20;98.20
11540;DHT22;5826;54.756;9.192;2023-09-07T10:24:28;26.30;98.20
11540;DHT22;5826;54.756;9.192;2023-09-07T10:26:58;26.30;97.90
11540;DHT22;5826;54.756;9.192;2023-09-07T10:29:25;26.40;97.90
11540;DHT22;5826;54.756;9.192;2023-09-07T10:31:51;26.40;98.00
11540;DHT22;5826;54.756;9.192;2023-09-07T10:34:17;26.40;98.00
11540;DHT22;5826;54.756;9.192;2023-09-07T10:36:43;26.40;97.90
11540;DHT22;5826;54.756;9.192;2023-09-07T10:39:09;26.40;97.80
11540;DHT22;5826;54.756;9.192;2023-09-07T10:41:41;26.40;97.70
11540;DHT22;5826;54.756;9.192;2023-09-07T10:44:08;27.50;98.00
11540;DHT22;5826;54.756;9.192;2023-09-07T10:46:37;26.60;97.80
11540;DHT22;5826;54.756;9.192;2023-09-07T10:49:02;26.80;97.90
11540;DHT22;5826;54.756;9.192;2023-09-07T10:51:28;26.80;97.80
11540;DHT22;5826;54.756;9.192;2023-09-07T10:53:55;26.90;97.80
11540;DHT22;5826;54.756;9.192;2023-09-07T10:56:24;27.00;97.90
11540;DHT22;5826;54.756;9.192;2023-09-07T10:58:53;27.00;97.70
11540;DHT22;5826;54.756;9.192;2023-09-07T11:01:20;27.10;97.70
11540;DHT22;5826;54.756;9.192;2023-09-07T11:03:45;27.30;97.60
11540;DHT22;5826;54.756;9.192;2023-09-07T11:06:17;27.30;97.60
11540;DHT22;5826;54.756;9.192;2023-09-07T11:08:45;27.40;97.40
11540;DHT22;5826;54.756;9.192;2023-09-07T11:11:11;27.40;97.30
11540;DHT22;5826;54.756;9.192;2023-09-07T11:13:37;27.40;97.30
11540;DHT22;5826;54.756;9.192;2023-09-07T11:16:06;27.50;97.30
11540;DHT22;5826;54.756;9.192;2023-09-07T11:18:33;27.50;97.30
11540;DHT22;5826;54.756;9.192;2023-09-07T11:21:01;27.60;97.30
11540;DHT22;5826;54.756;9.192;2023-09-07T11:23:29;27.60;97.20
11540;DHT22;5826;54.756;9.192;2023-09-07T11:25:56;27.80;97.20
11540;DHT22;5826;54.756;9.192;2023-09-07T11:28:23;27.90;97.50
11540;DHT22;5826;54.756;9.192;2023-09-07T11:30:54;27.90;97.00
11540;DHT22;5826;54.756;9.192;2023-09-07T11:33:21;28.00;97.00
11540;DHT22;5826;54.756;9.192;2023-09-07T11:35:47;28.10;96.90
11540;DHT22;5826;54.756;9.192;2023-09-07T11:38:14;28.20;96.80
11540;DHT22;5826;54.756;9.192;2023-09-07T11:40:40;28.30;96.90
11540;DHT22;5826;54.756;9.192;2023-09-07T11:43:18;28.30;97.20
11540;DHT22;5826;54.756;9.192;2023-09-07T11:45:48;28.50;96.60
11540;DHT22;5826;54.756;9.192;2023-09-07T11:48:13;28.40;96.80
11540;DHT22;5826;54.756;9.192;2023-09-07T11:50:40;28.50;97.00
11540;DHT22;5826;54.756;9.192;2023-09-07T11:53:06;29.20;97.20
11540;DHT22;5826;54.756;9.192;2023-09-07T11:55:35;28.60;97.10
11540;DHT22;5826;54.756;9.192;2023-09-07T11:58:02;28.60;97.10
11540;DHT22;5826;54.756;9.192;2023-09-07T12:00:27;28.60;97.10
11540;DHT22;5826;54.756;9.192;2023-09-07T12:02:54;28.60;97.00
11540;DHT22;5826;54.756;9.192;2023-09-07T12:05:20;28.60;97.10
11540;DHT22;5826;54.756;9.192;2023-09-07T12:07:45;28.60;97.20
11540;DHT22;5826;54.756;9.192;2023-09-07T12:10:11;28.70;97.20
11540;DHT22;5826;54.756;9.192;2023-09-07T12:12:41;28.80;97.00
11540;DHT22;5826;54.756;9.192;2023-09-07T12:15:07;28.80;97.10
11540;DHT22;5826;54.756;9.192;2023-09-07T12:17:33;28.80;97.10
11540;DHT22;5826;54.756;9.192;2023-09-07T12:19:59;28.90;97.20
11540;DHT22;5826;54.756;9.192;2023-09-07T12:22:26;29.00;97.20
11540;DHT22;5826;54.756;9.192;2023-09-07T12:24:51;29.00;97.10
11540;DHT22;5826;54.756;9.192;2023-09-07T12:27:17;29.10;97.00
11540;DHT22;5826;54.756;9.192;2023-09-07T12:29:43;29.20;97.10
11540;DHT22;5826;54.756;9.192;2023-09-07T12:32:09;29.30;97.30
11540;DHT22;5826;54.756;9.192;2023-09-07T12:34:34;29.40;96.80
11540;DHT22;5826;54.756;9.192;2023-09-07T12:37:01;29.40;97.00
11540;DHT22;5826;54.756;9.192;2023-09-07T12:39:26;29.40;96.90
11540;DHT22;5826;54.756;9.192;2023-09-07T12:41:52;29.50;96.80
11540;DHT22;5826;54.756;9.192;2023-09-07T12:44:17;29.60;96.90
11540;DHT22;5826;54.756;9.192;2023-09-07T12:46:46;29.70;97.00
11540;DHT22;5826;54.756;9.192;2023-09-07T12:49:12;29.80;97.00
11540;DHT22;5826;54.756;9.192;2023-09-07T12:51:37;30.00;96.80
11540;DHT22;5826;54.756;9.192;2023-09-07T12:54:03;30.20;96.70
11540;DHT22;5826;54.756;9.192;2023-09-07T12:56:28;30.40;96.50
11540;DHT22;5826;54.756;9.192;2023-09-07T12:58:54;30.60;96.20
11540;DHT22;5826;54.756;9.192;2023-09-07T13:01:22;30.80;96.10
11540;DHT22;5826;54.756;9.192;2023-09-07T13:03:47;30.80;95.80
11540;DHT22;5826;54.756;9.192;2023-09-07T13:06:13;31.00;95.70
11540;DHT22;5826;54.756;9.192;2023-09-07T13:08:39;31.20;95.60
11540;DHT22;5826;54.756;9.192;2023-09-07T13:11:04;31.30;95.60
11540;DHT22;5826;54.756;9.192;2023-09-07T13:13:30;31.50;95.50
11540;DHT22;5826;54.756;9.192;2023-09-07T13:15:56;31.80;95.10
11540;DHT22;5826;54.756;9.192;2023-09-07T13:18:22;31.80;94.80
11540;DHT22;5826;54.756;9.192;2023-09-07T13:20:48;31.80;94.90
11540;DHT22;5826;54.756;9.192;2023-09-07T13:23:15;31.90;94.70
11540;DHT22;5826;54.756;9.192;2023-09-07T13:25:41;32.00;94.60
11540;DHT22;5826;54.756;9.192;2023-09-07T13:28:07;32.20;94.50
11540;DHT22;5826;54.756;9.192;2023-09-07T13:30:32;32.30;94.30
11540;DHT22;5826;54.756;9.192;2023-09-07T13:32:58;32.40;94.20
11540;DHT22;5826;54.756;9.192;2023-09-07T13:35:24;32.20;94.10
11540;DHT22;5826;54.756;9.192;2023-09-07T13:37:50;32.50;94.00
11540;DHT22;5826;54.756;9.192;2023-09-07T13:40:15;32.70;93.90
11540;DHT22;5826;54.756;9.192;2023-09-07T13:42:48;33.00;93.50
11540;DHT22;5826;54.756;9.192;2023-09-07T13:45:19;33.60;92.80
11540;DHT22;5826;54.756;9.192;2023-09-07T13:47:46;34.20;92.10
11540;DHT22;5826;54.756;9.192;2023-09-07T13:50:12;35.10;91.30
11540;DHT22;5826;54.756;9.192;2023-09-07T13:52:38;36.10;90.00
11540;DHT22;5826;54.756;9.192;2023-09-07T13:55:04;37.40;86.70
11540;DHT22;5826;54.756;9.192;2023-09-07T13:57:30;38.90;81.90
11540;DHT22;5826;54.756;9.192;2023-09-07T13:59:55;40.50;77.50
11540;DHT22;5826;54.756;9.192;2023-09-07T14:02:21;42.30;72.90
11540;DHT22;5826;54.756;9.192;2023-09-07T14:04:46;43.60;69.10
11540;DHT22;5826;54.756;9.192;2023-09-07T14:07:12;44.90;66.00
11540;DHT22;5826;54.756;9.192;2023-09-07T14:09:38;46.00;62.80
11540;DHT22;5826;54.756;9.192;2023-09-07T14:12:04;46.90;61.10
11540;DHT22;5826;54.756;9.192;2023-09-07T14:14:29;47.80;59.70
11540;DHT22;5826;54.756;9.192;2023-09-07T14:16:55;48.40;59.50
11540;DHT22;5826;54.756;9.192;2023-09-07T14:19:23;48.90;59.70
11540;DHT22;5826;54.756;9.192;2023-09-07T14:21:48;49.20;59.80
11540;DHT22;5826;54.756;9.192;2023-09-07T14:24:14;49.80;61.00
11540;DHT22;5826;54.756;9.192;2023-09-07T14:26:39;50.30;61.50
11540;DHT22;5826;54.756;9.192;2023-09-07T14:29:05;50.60;62.50
11540;DHT22;5826;54.756;9.192;2023-09-07T14:31:30;51.00;63.60
11540;DHT22;5826;54.756;9.192;2023-09-07T14:33:56;51.40;64.10
11540;DHT22;5826;54.756;9.192;2023-09-07T14:36:21;51.80;64.10
11540;DHT22;5826;54.756;9.192;2023-09-07T14:38:47;52.20;64.50
11540;DHT22;5826;54.756;9.192;2023-09-07T14:41:12;52.40;64.90
11540;DHT22;5826;54.756;9.192;2023-09-07T14:43:47;52.60;65.00
11540;DHT22;5826;54.756;9.192;2023-09-07T14:46:13;52.70;65.60
11540;DHT22;5826;54.756;9.192;2023-09-07T14:48:39;53.00;64.70
11540;DHT22;5826;54.756;9.192;2023-09-07T14:51:18;53.10;65.00
11540;DHT22;5826;54.756;9.192;2023-09-07T14:53:44;53.30;62.50
11540;DHT22;5826;54.756;9.192;2023-09-07T14:56:09;53.40;64.30
11540;DHT22;5826;54.756;9.192;2023-09-07T14:58:35;53.50;64.10
11540;DHT22;5826;54.756;9.192;2023-09-07T15:01:01;53.70;64.30
11540;DHT22;5826;54.756;9.192;2023-09-07T15:03:26;53.70;63.70
11540;DHT22;5826;54.756;9.192;2023-09-07T15:05:52;53.90;63.30
11540;DHT22;5826;54.756;9.192;2023-09-07T15:08:17;53.80;62.80
11540;DHT22;5826;54.756;9.192;2023-09-07T15:10:43;53.90;63.30
11540;DHT22;5826;54.756;9.192;2023-09-07T15:13:08;53.90;63.10
11540;DHT22;5826;54.756;9.192;2023-09-07T15:15:35;53.90;62.90
11540;DHT22;5826;54.756;9.192;2023-09-07T15:18:15;53.80;62.90
11540;DHT22;5826;54.756;9.192;2023-09-07T15:20:44;53.70;61.90
11540;DHT22;5826;54.756;9.192;2023-09-07T15:23:19;53.60;62.40
11540;DHT22;5826;54.756;9.192;2023-09-07T15:26:01;53.20;62.30
11540;DHT22;5826;54.756;9.192;2023-09-07T15:28:38;53.00;61.10
11540;DHT22;5826;54.756;9.192;2023-09-07T15:31:05;52.90;62.10
11540;DHT22;5826;54.756;9.192;2023-09-07T15:33:30;52.80;61.60
11540;DHT22;5826;54.756;9.192;2023-09-07T15:35:57;52.60;61.70
11540;DHT22;5826;54.756;9.192;2023-09-07T15:38:23;52.40;61.30
11540;DHT22;5826;54.756;9.192;2023-09-07T15:40:49;52.30;61.20